Airfield :







YOU CAN JOIN US ON...

 
LOGIN :

Register | Disclaimer

   EN    FR    IT 

 









Legend :    VFR   Marginal VFR   IFR   Intensive IFR   Very Intensive IFR
Visi :
Ceiling :
>= 8 km
>= 3000ft
5 to 8 km
1000 to 3000 ft
1500m to 5 km
500 to 1000 ft
800 to 1500m
200 to 500 ft
< 800m
< 200 ft
Symbols :   Thunderstorms  Fog  Heavy snow  Heavy precipitations  Wind > 20 kt







- Airport Elevation : 203 ft
- IATA code : YQY


CYQY - Sydney

CURRENT METAR :
  • 171800Z 21014G27KT 15SM FEW065 SCT120 BKN140 BKN250 25/15 A2982 RMK SC1AC3AC2CI1 SLP099 DENSITY ALT 1500FT

EXPIRED METARs :
  • 171700Z 20016G24KT 15SM SCT070 BKN140 BKN250 26/15 A2983 RMK AC3AC3CI1 SLP102 DENSITY ALT 1700FT
  • 171600Z 20016G23KT 15SM FEW062 SCT075 BKN140 BKN240 25/15 A2986 RMK SC1AC4AC2CI1 SC TR SLP112 DENSITY ALT 1600FT

TAF TAF CYQY
Valid from the 17 at 18:00 until the 18 at 06:00 UTC


171738Z 1718/1806 20012G22KT P6SM FEW040 SCT070
FM172300 21010KT P6SM BKN040 OVC070
TEMPO 1723/1802 3SM -SHRA BR BKN007 OVC040
PROB30 1723/1802 VRB15G25KT 2SM TSRA BR BKN005 OVC030CB
FM180200 21008KT 2SM -SHRA BR OVC005 RMK NXT FCST BY 180000Z
CZQM FIR / North America



MET'MAP, your aeronautical weather chart ! - Copyright ORBIFLY December 2007 - Disclaimer

ORBIFLY MET'MAP TEAM :

Programming & Development : Alexandra Zaïnal
Concept & Development : Baudouin d'Aumeries
Co-Development & Prog : Marc-Olivier Méhu
Technical & hardware support : Manuel Goepfert

Contact : metmap@orbifly.com




SOURCES & CREDITS :

   NOAA